createdAt,value
2023-03-12T00:00:20.165Z,3.90
2023-03-12T00:02:47.571Z,3.90
2023-03-12T00:05:15.159Z,3.90
2023-03-12T00:07:42.755Z,3.90
2023-03-12T00:10:10.854Z,3.90
2023-03-12T00:12:38.150Z,3.80
2023-03-12T00:15:06.105Z,3.90
2023-03-12T00:17:33.492Z,3.90
2023-03-12T00:20:00.790Z,3.80
2023-03-12T00:22:28.231Z,3.90
2023-03-12T00:24:56.297Z,3.80
2023-03-12T00:27:24.210Z,3.80
2023-03-12T00:29:51.720Z,3.80
2023-03-12T00:32:19.256Z,3.80
2023-03-12T00:34:51.836Z,3.80
2023-03-12T00:37:19.413Z,3.70
2023-03-12T00:39:46.750Z,3.70
2023-03-12T00:42:14.249Z,3.70
2023-03-12T00:44:41.739Z,3.70
2023-03-12T00:47:09.236Z,3.60
2023-03-12T00:49:36.672Z,3.50
2023-03-12T00:52:04.338Z,3.50
2023-03-12T00:54:31.717Z,3.50
2023-03-12T00:56:59.012Z,3.50
2023-03-12T00:59:26.461Z,3.40
2023-03-12T01:01:53.752Z,3.40
2023-03-12T01:04:21.075Z,3.40
2023-03-12T01:06:48.709Z,3.40
2023-03-12T01:09:16.044Z,3.30
2023-03-12T01:11:43.403Z,3.30
2023-03-12T01:14:10.942Z,3.30
2023-03-12T01:16:38.369Z,3.40
2023-03-12T01:19:05.680Z,3.40
2023-03-12T01:21:33.005Z,3.30
2023-03-12T01:24:00.399Z,3.40
2023-03-12T01:26:27.955Z,3.40
2023-03-12T01:28:55.877Z,3.40
2023-03-12T01:31:23.269Z,3.40
2023-03-12T01:33:51.551Z,3.40
2023-03-12T01:36:26.938Z,3.40
2023-03-12T01:38:55.128Z,3.30
2023-03-12T01:41:23.025Z,3.30
2023-03-12T01:43:51.000Z,3.30
2023-03-12T01:46:34.580Z,3.40
2023-03-12T01:49:09.481Z,3.50
2023-03-12T01:51:40.594Z,3.60
2023-03-12T01:54:11.997Z,3.60
2023-03-12T01:56:39.377Z,3.70
2023-03-12T01:59:15.834Z,3.70
2023-03-12T02:01:43.376Z,3.70
2023-03-12T02:04:11.828Z,3.80
2023-03-12T02:07:06.156Z,3.80
2023-03-12T02:09:34.757Z,3.80
2023-03-12T02:12:02.520Z,3.80
2023-03-12T02:14:29.997Z,3.80
2023-03-12T02:16:57.426Z,3.80
2023-03-12T02:19:28.146Z,3.70
2023-03-12T02:21:55.471Z,3.70
2023-03-12T02:24:26.347Z,3.70
2023-03-12T02:26:53.729Z,3.70
2023-03-12T02:29:21.158Z,3.80
2023-03-12T02:31:53.171Z,3.80
2023-03-12T02:34:20.566Z,3.80
2023-03-12T02:36:48.393Z,3.70
2023-03-12T02:39:15.830Z,3.70
2023-03-12T02:41:48.393Z,3.70
2023-03-12T02:44:20.204Z,3.60
2023-03-12T02:46:50.705Z,3.50
2023-03-12T02:49:18.650Z,3.50
2023-03-12T02:51:46.506Z,3.40
2023-03-12T02:54:14.780Z,3.40
2023-03-12T02:56:42.295Z,3.30
2023-03-12T02:59:09.901Z,3.30
2023-03-12T03:01:41.203Z,3.30
2023-03-12T03:04:09.335Z,3.30
2023-03-12T03:06:37.598Z,3.30
2023-03-12T03:09:05.334Z,3.30
2023-03-12T03:11:32.640Z,3.30
2023-03-12T03:14:04.388Z,3.30
2023-03-12T03:16:32.234Z,3.30
2023-03-12T03:18:59.707Z,3.30
2023-03-12T03:21:27.044Z,3.30
2023-03-12T03:23:54.362Z,3.30
2023-03-12T03:26:22.431Z,3.40
2023-03-12T03:28:50.127Z,3.40
2023-03-12T03:31:17.879Z,3.40
2023-03-12T03:33:45.381Z,3.50
2023-03-12T03:36:14.969Z,3.50
2023-03-12T03:38:50.772Z,3.60
2023-03-12T03:41:19.933Z,3.60
2023-03-12T03:43:48.109Z,3.50
2023-03-12T03:46:18.340Z,3.50
2023-03-12T03:48:51.017Z,3.50
2023-03-12T03:51:18.623Z,3.60
2023-03-12T03:53:49.333Z,3.60
2023-03-12T03:56:16.847Z,3.70
2023-03-12T03:58:47.952Z,3.70
2023-03-12T04:01:16.990Z,3.70
2023-03-12T04:03:45.884Z,3.70
2023-03-12T04:06:14.087Z,3.70
2023-03-12T04:08:42.345Z,3.70
2023-03-12T04:11:15.810Z,3.70
2023-03-12T04:13:43.714Z,3.70
2023-03-12T04:16:12.392Z,3.70
2023-03-12T04:18:40.297Z,3.70
2023-03-12T04:21:14.271Z,3.80
2023-03-12T04:23:42.429Z,3.80
2023-03-12T04:26:11.926Z,3.80
2023-03-12T04:28:39.920Z,3.90
2023-03-12T04:31:08.538Z,3.80
2023-03-12T04:33:46.379Z,3.80
2023-03-12T04:36:14.639Z,3.80
2023-03-12T04:38:44.452Z,3.80
2023-03-12T04:41:14.001Z,3.80
2023-03-12T04:43:47.702Z,3.80
2023-03-12T04:46:16.360Z,3.80
2023-03-12T04:48:44.791Z,3.90
2023-03-12T04:51:13.262Z,3.90
2023-03-12T04:53:40.725Z,3.90
2023-03-12T04:56:10.238Z,3.80
2023-03-12T04:58:38.628Z,3.90
2023-03-12T05:01:06.613Z,3.90
2023-03-12T05:03:34.260Z,3.90
2023-03-12T05:06:02.297Z,4.00
2023-03-12T05:08:30.047Z,4.00
2023-03-12T05:10:57.471Z,4.00
2023-03-12T05:13:26.484Z,4.10
2023-03-12T05:15:57.267Z,4.00
2023-03-12T05:18:26.416Z,4.00
2023-03-12T05:21:02.238Z,4.10
2023-03-12T05:23:29.995Z,4.10
2023-03-12T05:25:58.935Z,4.00
2023-03-12T05:28:28.463Z,4.10
2023-03-12T05:30:59.097Z,4.00
2023-03-12T05:33:27.324Z,4.00
2023-03-12T05:35:55.099Z,4.00
2023-03-12T05:38:22.687Z,4.10
2023-03-12T05:40:54.449Z,4.00
2023-03-12T05:43:22.130Z,4.10
2023-03-12T05:45:49.756Z,4.10
2023-03-12T05:48:17.832Z,4.10
2023-03-12T05:50:45.441Z,4.10
2023-03-12T05:53:13.022Z,4.20
2023-03-12T05:55:41.175Z,4.20
2023-03-12T05:58:09.430Z,4.20
2023-03-12T06:00:38.027Z,4.20
2023-03-12T06:03:06.801Z,4.20
2023-03-12T06:05:35.713Z,4.20
2023-03-12T06:08:03.834Z,4.20
2023-03-12T06:10:31.302Z,4.30
2023-03-12T06:12:58.835Z,4.30
2023-03-12T06:15:26.195Z,4.30
2023-03-12T06:17:53.600Z,4.40
2023-03-12T06:20:21.003Z,4.40
2023-03-12T06:22:48.449Z,4.30
2023-03-12T06:25:15.821Z,4.40
2023-03-12T06:27:43.246Z,4.30
2023-03-12T06:30:11.178Z,4.40
2023-03-12T06:32:38.667Z,4.30
2023-03-12T06:35:06.430Z,4.40
2023-03-12T06:37:33.779Z,4.50
2023-03-12T06:40:01.140Z,4.50
2023-03-12T06:42:28.463Z,4.60
2023-03-12T06:44:55.738Z,4.60
2023-03-12T06:47:23.085Z,4.70
2023-03-12T06:49:50.382Z,4.80
2023-03-12T06:52:17.691Z,4.80
2023-03-12T06:54:45.066Z,4.80
2023-03-12T06:57:12.361Z,4.80
2023-03-12T06:59:39.668Z,4.90
2023-03-12T07:02:07.038Z,4.90
2023-03-12T07:04:34.370Z,4.90
2023-03-12T07:07:01.649Z,4.90
2023-03-12T07:09:29.173Z,4.90
2023-03-12T07:11:56.610Z,4.90
2023-03-12T07:14:23.899Z,4.90
2023-03-12T07:16:51.210Z,4.90
2023-03-12T07:19:19.511Z,5.00
2023-03-12T07:21:46.932Z,5.00
2023-03-12T07:24:14.281Z,4.90
2023-03-12T07:26:43.653Z,5.00
2023-03-12T07:29:11.610Z,5.00
2023-03-12T07:31:38.973Z,5.00
2023-03-12T07:34:06.791Z,5.10
2023-03-12T07:36:34.403Z,5.10
2023-03-12T07:39:01.790Z,5.20
2023-03-12T07:41:29.132Z,5.40
2023-03-12T07:43:57.138Z,5.40
2023-03-12T07:46:24.565Z,5.50
2023-03-12T07:48:51.894Z,5.60
2023-03-12T07:51:19.162Z,5.60
2023-03-12T07:53:46.485Z,5.70
2023-03-12T07:56:13.891Z,5.80
2023-03-12T07:58:41.295Z,5.80
2023-03-12T08:01:09.151Z,5.80
2023-03-12T08:03:38.995Z,5.80
2023-03-12T08:06:06.833Z,5.80
2023-03-12T08:08:34.261Z,5.80
2023-03-12T08:11:01.747Z,5.80
2023-03-12T08:13:29.144Z,5.80
2023-03-12T08:15:56.525Z,5.80
2023-03-12T08:18:24.742Z,5.90
2023-03-12T08:20:53.132Z,5.90
2023-03-12T08:23:20.682Z,6.00
2023-03-12T08:25:51.260Z,6.10
2023-03-12T08:28:19.281Z,6.10
2023-03-12T08:30:51.300Z,6.10
2023-03-12T08:33:18.625Z,6.10
2023-03-12T08:35:46.078Z,6.10
2023-03-12T08:38:13.449Z,6.10
2023-03-12T08:40:40.834Z,6.10
2023-03-12T08:43:08.848Z,6.10
2023-03-12T08:45:36.457Z,6.10
2023-03-12T08:48:07.247Z,6.10
2023-03-12T08:50:35.835Z,6.20
2023-03-12T08:53:03.127Z,6.20
2023-03-12T08:55:30.664Z,6.20
2023-03-12T08:57:57.989Z,6.30
2023-03-12T09:00:25.425Z,6.30
2023-03-12T09:02:54.182Z,6.20
2023-03-12T09:05:21.541Z,6.10
2023-03-12T09:07:50.094Z,6.10
2023-03-12T09:10:17.728Z,6.10
2023-03-12T09:12:45.386Z,6.10
2023-03-12T09:15:13.137Z,6.10
2023-03-12T09:17:40.690Z,6.20
2023-03-12T09:20:08.878Z,6.20
2023-03-12T09:22:37.042Z,6.30
2023-03-12T09:25:05.286Z,6.30
2023-03-12T09:27:45.756Z,6.40
2023-03-12T09:30:17.636Z,6.40
2023-03-12T09:32:47.948Z,6.40
2023-03-12T09:35:16.110Z,6.30
2023-03-12T09:37:43.512Z,6.30
2023-03-12T09:40:17.619Z,6.30
2023-03-12T09:42:48.549Z,6.30
2023-03-12T09:45:20.185Z,6.30
2023-03-12T09:47:55.795Z,6.20
2023-03-12T09:50:29.428Z,6.10
2023-03-12T09:53:01.613Z,6.00
2023-03-12T09:55:33.190Z,5.90
2023-03-12T09:58:00.496Z,5.80
2023-03-12T10:00:31.078Z,5.80
2023-03-12T10:03:23.405Z,5.80
2023-03-12T10:05:53.518Z,5.80
2023-03-12T10:08:31.871Z,5.70
2023-03-12T10:11:03.768Z,5.80
2023-03-12T10:13:57.428Z,5.80
2023-03-12T10:16:33.823Z,5.90
2023-03-12T10:19:09.155Z,5.80
2023-03-12T10:22:02.178Z,5.80
2023-03-12T10:24:55.543Z,5.90
2023-03-12T10:27:24.056Z,5.90
2023-03-12T10:29:51.873Z,5.90
2023-03-12T10:32:25.287Z,5.80
2023-03-12T10:34:56.576Z,5.80
2023-03-12T10:37:54.310Z,5.80
2023-03-12T10:40:23.781Z,5.70
2023-03-12T10:42:51.140Z,5.70
2023-03-12T10:45:39.923Z,5.80
2023-03-12T10:48:09.506Z,5.80
2023-03-12T10:50:38.016Z,5.80
2023-03-12T10:53:29.943Z,5.80
2023-03-12T10:56:02.540Z,5.80
2023-03-12T10:58:38.469Z,5.80
2023-03-12T11:01:12.319Z,5.80
2023-03-12T11:03:39.680Z,5.80
2023-03-12T11:06:07.403Z,5.80
2023-03-12T11:08:36.187Z,5.80
2023-03-12T11:11:04.393Z,5.80
2023-03-12T11:13:36.528Z,5.90
2023-03-12T11:16:19.135Z,5.90
2023-03-12T11:19:01.355Z,6.00
2023-03-12T11:21:29.379Z,6.10
2023-03-12T11:23:56.649Z,6.10
2023-03-12T11:26:25.624Z,6.10
2023-03-12T11:28:58.928Z,6.20
2023-03-12T11:31:27.242Z,6.30
2023-03-12T11:33:56.936Z,6.30
2023-03-12T11:36:43.128Z,6.40
2023-03-12T11:39:15.128Z,6.40
2023-03-12T11:41:46.319Z,6.40
2023-03-12T11:44:13.607Z,6.50
2023-03-12T11:46:53.275Z,6.50
2023-03-12T11:49:38.876Z,6.60
2023-03-12T11:52:17.673Z,6.60
2023-03-12T11:55:05.243Z,6.70
2023-03-12T11:57:48.124Z,6.70
2023-03-12T12:00:17.381Z,6.70
2023-03-12T12:03:16.823Z,6.70
2023-03-12T12:06:03.946Z,6.70
2023-03-12T12:08:34.491Z,6.80
2023-03-12T12:11:24.178Z,6.80
2023-03-12T12:14:16.438Z,6.90
2023-03-12T12:17:05.535Z,6.80
2023-03-12T12:19:59.614Z,6.90
2023-03-12T12:22:35.935Z,6.90
2023-03-12T12:25:25.936Z,7.00
2023-03-12T12:27:53.507Z,7.10
2023-03-12T12:30:49.608Z,7.20
2023-03-12T12:33:35.341Z,7.30
2023-03-12T12:36:03.512Z,7.30
2023-03-12T12:38:54.777Z,7.40
2023-03-12T12:41:25.947Z,7.50
2023-03-12T12:43:58.531Z,7.60
2023-03-12T12:46:28.568Z,7.60
2023-03-12T12:49:15.545Z,7.70
2023-03-12T12:51:46.273Z,7.70
2023-03-12T12:54:31.298Z,7.80
2023-03-12T12:57:06.473Z,7.80
2023-03-12T12:59:43.683Z,7.90
2023-03-12T13:02:21.467Z,7.90
2023-03-12T13:04:48.883Z,8.00
2023-03-12T13:07:16.194Z,8.10
2023-03-12T13:09:47.551Z,8.20
2023-03-12T13:12:22.285Z,8.30
2023-03-12T13:14:49.865Z,8.50
2023-03-12T13:17:55.669Z,8.60
2023-03-12T13:20:27.238Z,8.70
2023-03-12T13:23:03.871Z,8.90
2023-03-12T13:25:47.302Z,9.10
2023-03-12T13:28:30.243Z,9.20
2023-03-12T13:30:58.136Z,9.30
2023-03-12T13:33:45.309Z,9.40
2023-03-12T13:36:23.826Z,9.50
2023-03-12T13:39:07.696Z,9.50
2023-03-12T13:41:38.815Z,9.60
2023-03-12T13:44:31.420Z,9.70
2023-03-12T13:47:05.874Z,9.80
2023-03-12T13:49:40.432Z,9.90
2023-03-12T13:52:31.109Z,10.10
2023-03-12T13:55:13.429Z,10.10
2023-03-12T13:57:43.228Z,10.20
2023-03-12T14:00:21.484Z,10.20
2023-03-12T14:02:52.218Z,10.20
2023-03-12T14:05:19.600Z,10.20
2023-03-12T14:08:23.819Z,10.20
2023-03-12T14:11:24.084Z,10.20
2023-03-12T14:14:16.378Z,10.30
2023-03-12T14:16:49.457Z,10.40
2023-03-12T14:19:19.683Z,10.40
2023-03-12T14:21:48.033Z,10.50
2023-03-12T14:24:27.996Z,10.60
2023-03-12T14:26:56.024Z,10.70
2023-03-12T14:29:43.652Z,10.80
2023-03-12T14:32:19.103Z,11.10
2023-03-12T14:34:57.973Z,11.30
2023-03-12T14:37:29.646Z,11.50
2023-03-12T14:40:30.630Z,11.60
2023-03-12T14:43:00.300Z,11.60
2023-03-12T14:45:27.811Z,11.70
2023-03-12T14:47:58.561Z,11.60
2023-03-12T14:50:31.167Z,11.50
2023-03-12T14:53:12.301Z,11.40
2023-03-12T14:55:39.598Z,11.30
2023-03-12T14:58:17.330Z,11.30
2023-03-12T15:00:45.621Z,11.20
2023-03-12T15:03:15.113Z,11.10
2023-03-12T15:05:47.497Z,11.00
2023-03-12T15:08:14.868Z,10.90
2023-03-12T15:10:47.276Z,10.90
2023-03-12T15:13:14.610Z,10.80
2023-03-12T15:15:43.181Z,10.80
2023-03-12T15:18:19.617Z,10.80
2023-03-12T15:20:47.554Z,10.70
2023-03-12T15:23:14.971Z,10.80
2023-03-12T15:25:42.514Z,10.80
2023-03-12T15:28:16.056Z,10.80
2023-03-12T15:30:43.796Z,10.90
2023-03-12T15:33:17.863Z,10.90
2023-03-12T15:36:08.141Z,10.90
2023-03-12T15:38:38.501Z,10.90
2023-03-12T15:41:08.366Z,10.90
2023-03-12T15:43:37.899Z,10.90
2023-03-12T15:46:05.986Z,10.90
2023-03-12T15:48:35.326Z,11.00
2023-03-12T15:51:02.672Z,11.00
2023-03-12T15:53:33.018Z,10.90
2023-03-12T15:56:09.646Z,10.90
2023-03-12T15:58:38.724Z,10.90
2023-03-12T16:01:11.681Z,10.80
2023-03-12T16:03:40.928Z,10.80
2023-03-12T16:06:15.874Z,10.80
2023-03-12T16:08:48.402Z,10.80
2023-03-12T16:11:20.061Z,10.70
2023-03-12T16:13:48.844Z,10.80
2023-03-12T16:16:16.248Z,10.70
2023-03-12T16:18:43.789Z,10.70
2023-03-12T16:21:11.361Z,10.70
2023-03-12T16:23:39.823Z,10.60
2023-03-12T16:26:07.289Z,10.60
2023-03-12T16:28:35.443Z,10.70
2023-03-12T16:31:02.982Z,10.70
2023-03-12T16:33:30.364Z,10.70
2023-03-12T16:35:57.953Z,10.70
2023-03-12T16:38:25.295Z,10.70
2023-03-12T16:40:52.665Z,10.70
2023-03-12T16:43:24.293Z,10.70
2023-03-12T16:45:52.492Z,10.70
2023-03-12T16:48:23.155Z,10.60
2023-03-12T16:50:52.470Z,10.60
2023-03-12T16:53:19.906Z,10.50
2023-03-12T16:55:57.900Z,10.50
2023-03-12T16:58:25.827Z,10.40
2023-03-12T17:00:53.717Z,10.40
2023-03-12T17:03:35.978Z,10.40
2023-03-12T17:06:05.417Z,10.40
2023-03-12T17:08:32.910Z,10.40
2023-03-12T17:11:00.257Z,10.40
2023-03-12T17:13:28.603Z,10.30
2023-03-12T17:15:56.726Z,10.20
2023-03-12T17:18:24.293Z,10.20
2023-03-12T17:20:51.982Z,10.20
2023-03-12T17:23:19.609Z,10.10
2023-03-12T17:25:47.127Z,10.10
2023-03-12T17:28:15.356Z,10.10
2023-03-12T17:30:43.086Z,10.00
2023-03-12T17:33:13.209Z,9.90
2023-03-12T17:35:40.898Z,9.90
2023-03-12T17:38:08.340Z,9.80
2023-03-12T17:40:38.908Z,9.70
2023-03-12T17:43:06.300Z,9.60
2023-03-12T17:45:34.062Z,9.50
2023-03-12T17:48:01.427Z,9.50
2023-03-12T17:50:28.717Z,9.50
2023-03-12T17:52:56.063Z,9.50
2023-03-12T17:55:23.471Z,9.40
2023-03-12T17:57:51.022Z,9.40
2023-03-12T18:00:18.800Z,9.40
2023-03-12T18:02:46.173Z,9.40
2023-03-12T18:05:13.533Z,9.40
2023-03-12T18:07:40.944Z,9.40
2023-03-12T18:10:11.000Z,9.40
2023-03-12T18:12:40.159Z,9.40
2023-03-12T18:15:08.522Z,9.40
2023-03-12T18:17:35.832Z,9.30
2023-03-12T18:20:09.609Z,9.30
2023-03-12T18:22:38.261Z,9.30
2023-03-12T18:25:06.579Z,9.30
2023-03-12T18:27:33.903Z,9.30
2023-03-12T18:30:01.211Z,9.30
2023-03-12T18:32:28.523Z,9.30
2023-03-12T18:34:56.024Z,9.20
2023-03-12T18:37:23.364Z,9.10
2023-03-12T18:39:50.760Z,9.10
2023-03-12T18:42:18.282Z,9.10
2023-03-12T18:44:45.624Z,9.10
2023-03-12T18:47:13.018Z,9.00
2023-03-12T18:49:40.568Z,9.00
2023-03-12T18:52:07.946Z,9.00
2023-03-12T18:54:35.294Z,9.00
2023-03-12T18:57:02.618Z,9.00
2023-03-12T18:59:32.261Z,8.90
2023-03-12T19:01:59.823Z,8.90
2023-03-12T19:04:27.259Z,8.90
2023-03-12T19:06:54.609Z,8.90
2023-03-12T19:09:22.013Z,8.80
2023-03-12T19:11:49.365Z,8.80
2023-03-12T19:14:16.789Z,8.90
2023-03-12T19:16:44.142Z,8.80
2023-03-12T19:19:11.481Z,8.80
2023-03-12T19:21:38.852Z,8.80
2023-03-12T19:24:06.283Z,8.80
2023-03-12T19:26:33.663Z,8.80
2023-03-12T19:29:00.981Z,8.80
2023-03-12T19:31:28.361Z,8.70
2023-03-12T19:33:55.688Z,8.80
2023-03-12T19:36:23.094Z,8.70
2023-03-12T19:38:50.477Z,8.70
2023-03-12T19:41:17.887Z,8.80
2023-03-12T19:43:45.227Z,8.80
2023-03-12T19:46:12.661Z,8.80
2023-03-12T19:48:40.060Z,8.80
2023-03-12T19:51:08.433Z,8.80
2023-03-12T19:53:36.085Z,8.80
2023-03-12T19:56:03.884Z,8.80
2023-03-12T19:58:31.263Z,8.70
2023-03-12T20:00:59.641Z,8.70
2023-03-12T20:03:30.771Z,8.70
2023-03-12T20:05:58.231Z,8.70
2023-03-12T20:08:31.944Z,8.70
2023-03-12T20:11:06.922Z,8.70
2023-03-12T20:13:34.292Z,8.80
2023-03-12T20:16:02.023Z,8.80
2023-03-12T20:18:29.505Z,8.80
2023-03-12T20:20:56.802Z,8.80
2023-03-12T20:23:24.142Z,8.80
2023-03-12T20:25:51.540Z,8.80
2023-03-12T20:28:18.924Z,8.80
2023-03-12T20:30:46.317Z,8.80
2023-03-12T20:33:13.812Z,8.80
2023-03-12T20:35:41.172Z,8.80
2023-03-12T20:38:08.615Z,8.80
2023-03-12T20:40:36.049Z,8.80
2023-03-12T20:43:05.009Z,8.80
2023-03-12T20:45:33.210Z,8.80
2023-03-12T20:48:00.788Z,8.80
2023-03-12T20:50:28.214Z,8.80
2023-03-12T20:52:55.647Z,8.80
2023-03-12T20:55:23.024Z,8.80
2023-03-12T20:57:50.426Z,8.80
2023-03-12T21:00:18.129Z,8.80
2023-03-12T21:02:45.534Z,8.90
2023-03-12T21:05:14.455Z,8.80
2023-03-12T21:07:41.925Z,8.90
2023-03-12T21:10:10.219Z,8.90
2023-03-12T21:12:39.641Z,8.90
2023-03-12T21:15:10.455Z,8.80
2023-03-12T21:17:38.354Z,8.90
2023-03-12T21:20:10.833Z,8.80
2023-03-12T21:22:38.760Z,8.80
2023-03-12T21:25:06.826Z,8.80
2023-03-12T21:27:48.049Z,8.80
2023-03-12T21:30:17.604Z,8.80
2023-03-12T21:32:44.988Z,8.80
2023-03-12T21:35:12.445Z,8.80
2023-03-12T21:37:39.908Z,8.80
2023-03-12T21:40:08.991Z,8.80
2023-03-12T21:42:36.311Z,8.80
2023-03-12T21:45:04.161Z,8.80
2023-03-12T21:47:31.508Z,8.80
2023-03-12T21:49:58.890Z,8.80
2023-03-12T21:52:26.165Z,8.80
2023-03-12T21:54:53.462Z,8.90
2023-03-12T21:57:20.744Z,8.90
2023-03-12T21:59:48.058Z,8.90
2023-03-12T22:02:15.401Z,8.80
2023-03-12T22:04:42.785Z,8.80
2023-03-12T22:07:10.091Z,8.80
2023-03-12T22:09:37.387Z,8.80
2023-03-12T22:12:04.917Z,8.80
2023-03-12T22:14:32.228Z,8.80
2023-03-12T22:16:59.518Z,8.80
2023-03-12T22:19:26.881Z,8.80
2023-03-12T22:21:54.200Z,8.80
2023-03-12T22:24:21.488Z,8.80
2023-03-12T22:26:48.821Z,8.90
2023-03-12T22:29:16.109Z,8.80
2023-03-12T22:31:43.570Z,8.80
2023-03-12T22:34:10.904Z,8.80
2023-03-12T22:36:41.123Z,8.80
2023-03-12T22:39:08.428Z,8.80
2023-03-12T22:41:35.811Z,8.90
2023-03-12T22:44:05.437Z,8.90
2023-03-12T22:46:33.026Z,8.90
2023-03-12T22:49:01.295Z,8.90
2023-03-12T22:51:29.539Z,8.80
2023-03-12T22:53:56.942Z,8.80
2023-03-12T22:56:24.298Z,8.90
2023-03-12T22:58:51.656Z,8.90
2023-03-12T23:01:20.442Z,8.80
2023-03-12T23:03:47.933Z,8.80
2023-03-12T23:06:16.968Z,8.80
2023-03-12T23:08:47.068Z,8.80
2023-03-12T23:11:15.193Z,8.80
2023-03-12T23:13:44.343Z,8.80
2023-03-12T23:16:16.973Z,8.80
2023-03-12T23:18:44.608Z,8.80
2023-03-12T23:21:20.425Z,8.80
2023-03-12T23:23:48.015Z,8.80
2023-03-12T23:26:26.596Z,8.70
2023-03-12T23:28:55.255Z,8.70
2023-03-12T23:31:22.756Z,8.60
2023-03-12T23:33:50.588Z,8.50
2023-03-12T23:36:19.089Z,8.50
2023-03-12T23:38:46.798Z,8.50
2023-03-12T23:41:15.135Z,8.50
2023-03-12T23:43:42.513Z,8.40
2023-03-12T23:46:10.189Z,8.40
2023-03-12T23:48:38.196Z,8.40
2023-03-12T23:51:06.209Z,8.40
2023-03-12T23:53:33.728Z,8.40
2023-03-12T23:56:01.719Z,8.40
2023-03-12T23:58:29.189Z,8.30
